createdAt,value
2023-03-21T00:01:23.107Z,9.56
2023-03-21T00:03:23.457Z,9.59
2023-03-21T00:05:23.828Z,9.58
2023-03-21T00:07:24.160Z,9.61
2023-03-21T00:09:24.450Z,9.61
2023-03-21T00:11:24.765Z,9.64
2023-03-21T00:13:25.029Z,9.65
2023-03-21T00:15:30.695Z,9.64
2023-03-21T00:17:30.554Z,9.65
2023-03-21T00:19:30.838Z,9.64
2023-03-21T00:23:36.313Z,9.66
2023-03-21T00:25:36.972Z,9.64
2023-03-21T00:29:42.613Z,9.66
2023-03-21T00:31:42.919Z,9.65
2023-03-21T00:33:43.206Z,9.66
2023-03-21T00:35:58.441Z,9.68
2023-03-21T00:37:48.664Z,9.65
2023-03-21T00:39:49.050Z,9.64
2023-03-21T00:41:49.386Z,9.65
2023-03-21T00:43:49.675Z,9.68
2023-03-21T00:45:49.933Z,9.66
2023-03-21T00:47:50.420Z,9.64
2023-03-21T00:49:50.773Z,9.66
2023-03-21T00:51:51.111Z,9.65
2023-03-21T00:53:51.522Z,9.58
2023-03-21T00:55:51.807Z,9.56
2023-03-21T00:58:01.308Z,9.54
2023-03-21T00:59:57.295Z,9.50
2023-03-21T01:01:57.680Z,9.48
2023-03-21T01:03:57.948Z,9.47
2023-03-21T01:05:58.261Z,9.47
2023-03-21T01:07:58.546Z,9.47
2023-03-21T01:09:58.875Z,9.46
2023-03-21T01:11:59.133Z,9.48
2023-03-21T01:14:14.809Z,9.47
2023-03-21T01:16:04.666Z,9.46
2023-03-21T01:18:04.951Z,9.54
2023-03-21T01:20:05.220Z,9.50
2023-03-21T01:22:05.537Z,9.50
2023-03-21T01:24:05.810Z,9.47
2023-03-21T01:26:06.137Z,9.51
2023-03-21T01:28:06.393Z,9.47
2023-03-21T01:30:17.340Z,9.46
2023-03-21T01:32:11.910Z,9.50
2023-03-21T01:34:12.196Z,9.48
2023-03-21T01:36:13.851Z,9.44
2023-03-21T01:38:14.446Z,9.44
2023-03-21T01:40:14.720Z,9.47
2023-03-21T01:42:15.007Z,9.50
2023-03-21T01:44:15.328Z,9.51
2023-03-21T01:46:15.641Z,9.54
2023-03-21T01:48:16.037Z,9.51
2023-03-21T01:50:16.354Z,9.47
2023-03-21T01:52:26.513Z,9.48
2023-03-21T01:54:21.849Z,9.47
2023-03-21T01:56:22.149Z,9.48
2023-03-21T01:58:22.482Z,9.47
2023-03-21T02:00:22.728Z,9.47
2023-03-21T02:02:23.055Z,9.51
2023-03-21T02:04:23.442Z,9.46
2023-03-21T02:06:23.760Z,9.46
2023-03-21T02:08:33.500Z,9.44
2023-03-21T02:10:29.219Z,9.41
2023-03-21T02:12:29.544Z,9.43
2023-03-21T02:14:29.847Z,9.43
2023-03-21T02:16:30.111Z,9.41
2023-03-21T02:18:30.405Z,9.37
2023-03-21T02:20:30.682Z,9.39
2023-03-21T02:22:30.974Z,9.37
2023-03-21T02:24:31.284Z,9.36
2023-03-21T02:26:41.155Z,9.34
2023-03-21T02:28:36.947Z,9.28
2023-03-21T02:30:49.104Z,9.29
2023-03-21T02:32:42.410Z,9.31
2023-03-21T02:34:42.696Z,9.29
2023-03-21T02:36:43.021Z,9.29
2023-03-21T02:38:43.306Z,9.28
2023-03-21T02:40:43.602Z,9.25
2023-03-21T02:42:48.901Z,9.29
2023-03-21T02:44:49.124Z,9.22
2023-03-21T02:46:59.714Z,9.22
2023-03-21T02:48:54.650Z,9.22
2023-03-21T02:50:54.918Z,9.19
2023-03-21T02:52:55.248Z,9.14
2023-03-21T02:54:55.531Z,9.19
2023-03-21T02:56:55.794Z,9.16
2023-03-21T02:58:56.136Z,9.13
2023-03-21T03:00:56.457Z,9.13
2023-03-21T03:03:08.098Z,9.11
2023-03-21T03:05:06.496Z,9.06
2023-03-21T03:07:07.121Z,8.99
2023-03-21T03:09:07.413Z,8.91
2023-03-21T03:11:07.753Z,8.81
2023-03-21T03:13:08.032Z,8.71
2023-03-21T03:15:08.313Z,8.61
2023-03-21T03:17:08.650Z,8.58
2023-03-21T03:19:08.952Z,8.56
2023-03-21T03:21:09.263Z,8.53
2023-03-21T03:23:09.527Z,8.56
2023-03-21T03:25:21.238Z,8.61
2023-03-21T03:27:15.041Z,8.58
2023-03-21T03:29:20.194Z,8.60
2023-03-21T03:31:25.428Z,8.60
2023-03-21T03:33:25.707Z,8.60
2023-03-21T03:35:25.996Z,8.60
2023-03-21T03:37:26.314Z,8.60
2023-03-21T03:39:26.597Z,8.63
2023-03-21T03:41:26.885Z,8.64
2023-03-21T03:43:27.195Z,8.63
2023-03-21T03:45:27.472Z,8.61
2023-03-21T03:47:33.754Z,8.60
2023-03-21T03:49:33.013Z,8.60
2023-03-21T03:51:33.517Z,8.60
2023-03-21T03:53:33.815Z,8.60
2023-03-21T03:55:34.152Z,8.61
2023-03-21T03:57:34.427Z,8.60
2023-03-21T03:59:34.723Z,8.63
2023-03-21T04:01:35.084Z,8.61
2023-03-21T04:03:48.143Z,8.64
2023-03-21T04:05:40.581Z,8.64
2023-03-21T04:07:40.834Z,8.66
2023-03-21T04:09:44.882Z,8.61
2023-03-21T04:11:45.453Z,8.63
2023-03-21T04:13:45.748Z,8.60
2023-03-21T04:15:46.242Z,8.63
2023-03-21T04:17:46.588Z,8.64
2023-03-21T04:19:46.898Z,8.55
2023-03-21T04:21:47.200Z,8.55
2023-03-21T04:23:47.469Z,8.51
2023-03-21T04:25:56.247Z,8.49
2023-03-21T04:27:53.017Z,8.51
2023-03-21T04:29:53.297Z,8.52
2023-03-21T04:31:53.675Z,8.53
2023-03-21T04:33:53.984Z,8.52
2023-03-21T04:35:54.352Z,8.55
2023-03-21T04:37:54.635Z,8.58
2023-03-21T04:39:54.935Z,8.56
2023-03-21T04:41:55.473Z,8.55
2023-03-21T04:43:55.773Z,8.60
2023-03-21T04:45:56.160Z,8.60
2023-03-21T04:47:56.467Z,8.63
2023-03-21T04:49:56.731Z,8.63
2023-03-21T04:51:57.040Z,8.63
2023-03-21T04:53:57.319Z,8.61
2023-03-21T04:55:57.634Z,8.64
2023-03-21T04:57:57.909Z,8.58
2023-03-21T04:59:58.183Z,8.61
2023-03-21T05:01:58.484Z,8.60
2023-03-21T05:03:58.862Z,8.58
2023-03-21T05:05:59.117Z,8.55
2023-03-21T05:07:59.437Z,8.56
2023-03-21T05:10:01.944Z,8.55
2023-03-21T05:12:02.760Z,8.56
2023-03-21T05:14:03.031Z,8.58
2023-03-21T05:16:03.304Z,8.58
2023-03-21T05:18:03.733Z,8.58
2023-03-21T05:20:04.031Z,8.60
2023-03-21T05:22:04.349Z,8.53
2023-03-21T05:24:09.682Z,8.56
2023-03-21T05:26:09.973Z,8.58
2023-03-21T05:28:10.268Z,8.60
2023-03-21T05:30:10.563Z,8.58
2023-03-21T05:32:10.826Z,8.56
2023-03-21T05:34:11.452Z,8.60
2023-03-21T05:36:11.969Z,8.58
2023-03-21T05:38:12.399Z,8.61
2023-03-21T05:40:12.790Z,8.64
2023-03-21T05:42:13.170Z,8.67
2023-03-21T05:44:13.501Z,8.64
2023-03-21T05:46:13.853Z,8.63
2023-03-21T05:48:14.189Z,8.60
2023-03-21T05:50:14.460Z,8.56
2023-03-21T05:52:14.787Z,8.51
2023-03-21T05:54:15.113Z,8.46
2023-03-21T05:56:15.372Z,8.48
2023-03-21T05:58:15.699Z,8.48
2023-03-21T06:00:16.070Z,8.52
2023-03-21T06:02:16.433Z,8.49
2023-03-21T06:04:16.776Z,8.46
2023-03-21T06:06:17.074Z,8.45
2023-03-21T06:08:17.363Z,8.46
2023-03-21T06:10:17.711Z,8.49
2023-03-21T06:12:17.953Z,8.51
2023-03-21T06:14:18.276Z,8.52
2023-03-21T06:16:18.640Z,8.55
2023-03-21T06:18:18.979Z,8.66
2023-03-21T06:20:19.347Z,8.74
2023-03-21T06:22:19.746Z,8.84
2023-03-21T06:24:20.040Z,8.92
2023-03-21T06:26:20.310Z,9.00
2023-03-21T06:28:20.604Z,9.11
2023-03-21T06:30:20.923Z,9.22
2023-03-21T06:32:21.371Z,9.34
2023-03-21T06:34:22.018Z,9.48
2023-03-21T06:36:22.476Z,9.62
2023-03-21T06:38:22.878Z,9.74
2023-03-21T06:40:23.163Z,9.87
2023-03-21T06:42:23.479Z,9.99
2023-03-21T06:44:23.772Z,10.04
2023-03-21T06:46:24.162Z,10.05
2023-03-21T06:48:24.590Z,10.13
2023-03-21T06:50:25.013Z,10.16
2023-03-21T06:52:25.265Z,10.26
2023-03-21T06:54:25.573Z,10.33
2023-03-21T06:56:25.878Z,10.38
2023-03-21T06:58:26.142Z,10.42
2023-03-21T07:00:26.468Z,10.48
2023-03-21T07:02:26.805Z,10.53
2023-03-21T07:04:27.194Z,10.60
2023-03-21T07:06:27.486Z,10.59
2023-03-21T07:08:28.348Z,10.69
2023-03-21T07:10:28.665Z,10.79
2023-03-21T07:12:28.995Z,10.89
2023-03-21T07:14:29.290Z,10.97
2023-03-21T07:16:29.625Z,11.07
2023-03-21T07:18:29.905Z,11.11
2023-03-21T07:20:30.246Z,11.25
2023-03-21T07:22:30.530Z,11.41
2023-03-21T07:24:30.866Z,11.44
2023-03-21T07:26:31.142Z,11.52
2023-03-21T07:28:31.515Z,11.59
2023-03-21T07:30:31.792Z,11.62
2023-03-21T07:32:32.083Z,11.66
2023-03-21T07:34:32.383Z,11.57
2023-03-21T07:36:32.648Z,11.57
2023-03-21T07:38:32.953Z,11.68
2023-03-21T07:40:33.277Z,11.73
2023-03-21T07:42:33.595Z,11.78
2023-03-21T07:44:33.875Z,11.72
2023-03-21T07:46:34.269Z,11.63
2023-03-21T07:48:34.516Z,11.65
2023-03-21T07:50:35.068Z,11.65
2023-03-21T07:52:35.378Z,11.66
2023-03-21T07:54:35.662Z,11.78
2023-03-21T07:56:35.980Z,11.86
2023-03-21T07:58:36.286Z,11.99
2023-03-21T08:00:36.609Z,12.00
2023-03-21T08:02:36.943Z,11.88
2023-03-21T08:04:37.302Z,12.00
2023-03-21T08:06:37.610Z,12.04
2023-03-21T08:08:37.876Z,12.20
2023-03-21T08:10:38.192Z,12.31
2023-03-21T08:12:38.452Z,12.50
2023-03-21T08:14:38.733Z,12.75
2023-03-21T08:16:39.112Z,12.93
2023-03-21T08:18:39.360Z,12.85
2023-03-21T08:20:39.669Z,12.90
2023-03-21T08:22:39.977Z,13.03
2023-03-21T08:24:40.245Z,13.15
2023-03-21T08:26:40.552Z,13.25
2023-03-21T08:28:40.947Z,13.25
2023-03-21T08:30:41.277Z,13.31
2023-03-21T08:32:42.395Z,13.53
2023-03-21T08:34:42.707Z,13.60
2023-03-21T08:36:43.016Z,13.67
2023-03-21T08:38:43.385Z,13.87
2023-03-21T08:40:43.655Z,13.99
2023-03-21T08:42:43.962Z,14.10
2023-03-21T08:44:44.263Z,14.17
2023-03-21T08:46:44.614Z,14.14
2023-03-21T08:48:44.918Z,14.26
2023-03-21T08:50:45.240Z,14.25
2023-03-21T08:52:45.517Z,14.23
2023-03-21T08:54:45.820Z,14.11
2023-03-21T08:56:46.135Z,14.23
2023-03-21T08:58:46.413Z,14.36
2023-03-21T09:00:46.760Z,14.51
2023-03-21T09:02:47.098Z,14.68
2023-03-21T09:04:47.423Z,14.79
2023-03-21T09:06:47.713Z,14.77
2023-03-21T09:08:47.991Z,14.84
2023-03-21T09:10:48.380Z,14.88
2023-03-21T09:12:49.444Z,14.84
2023-03-21T09:14:49.788Z,14.89
2023-03-21T09:16:50.057Z,14.78
2023-03-21T09:18:50.343Z,14.72
2023-03-21T09:20:50.669Z,14.78
2023-03-21T09:22:50.953Z,14.79
2023-03-21T09:24:51.219Z,14.84
2023-03-21T09:26:51.588Z,14.69
2023-03-21T09:28:51.845Z,14.73
2023-03-21T09:30:52.185Z,14.73
2023-03-21T09:32:52.503Z,14.65
2023-03-21T09:34:52.778Z,14.62
2023-03-21T09:36:53.110Z,14.59
2023-03-21T09:38:53.472Z,14.68
2023-03-21T09:40:53.789Z,14.81
2023-03-21T09:42:54.100Z,14.82
2023-03-21T09:44:54.401Z,14.89
2023-03-21T09:46:54.809Z,15.00
2023-03-21T09:48:57.448Z,14.97
2023-03-21T09:50:58.069Z,14.88
2023-03-21T09:52:58.391Z,14.79
2023-03-21T09:54:58.684Z,14.81
2023-03-21T09:56:59.022Z,14.85
2023-03-21T09:58:59.490Z,14.99
2023-03-21T10:00:59.872Z,15.04
2023-03-21T10:03:00.192Z,15.19
2023-03-21T10:05:00.517Z,15.36
2023-03-21T10:07:01.088Z,15.31
2023-03-21T10:09:01.351Z,15.43
2023-03-21T10:11:01.661Z,15.46
2023-03-21T10:13:01.962Z,15.44
2023-03-21T10:15:02.263Z,15.54
2023-03-21T10:17:02.517Z,15.44
2023-03-21T10:19:02.847Z,15.40
2023-03-21T10:21:03.168Z,15.44
2023-03-21T10:23:03.451Z,15.42
2023-03-21T10:25:03.741Z,15.39
2023-03-21T10:27:04.126Z,15.44
2023-03-21T10:29:04.451Z,15.36
2023-03-21T10:31:04.758Z,15.40
2023-03-21T10:33:05.223Z,15.46
2023-03-21T10:35:05.738Z,15.46
2023-03-21T10:37:06.518Z,15.39
2023-03-21T10:39:06.800Z,15.28
2023-03-21T10:41:11.950Z,15.28
2023-03-21T10:43:12.314Z,15.31
2023-03-21T10:45:12.643Z,15.35
2023-03-21T10:47:13.236Z,15.33
2023-03-21T10:49:13.655Z,15.39
2023-03-21T10:51:14.005Z,15.29
2023-03-21T10:53:14.278Z,15.27
2023-03-21T10:55:14.588Z,15.28
2023-03-21T10:57:14.895Z,15.42
2023-03-21T10:59:15.231Z,15.35
2023-03-21T11:01:20.431Z,15.33
2023-03-21T11:03:20.838Z,15.35
2023-03-21T11:05:21.185Z,15.36
2023-03-21T11:07:21.466Z,15.39
2023-03-21T11:09:21.770Z,15.51
2023-03-21T11:11:22.094Z,15.39
2023-03-21T11:13:22.382Z,15.29
2023-03-21T11:15:22.684Z,15.22
2023-03-21T11:17:23.010Z,15.33
2023-03-21T11:19:23.304Z,15.28
2023-03-21T11:21:23.580Z,15.33
2023-03-21T11:23:23.905Z,15.47
2023-03-21T11:25:24.209Z,15.47
2023-03-21T11:27:24.512Z,15.37
2023-03-21T11:29:24.820Z,15.37
2023-03-21T11:31:25.264Z,15.28
2023-03-21T11:33:25.506Z,15.36
2023-03-21T11:35:25.823Z,15.40
2023-03-21T11:37:26.133Z,15.31
2023-03-21T11:39:26.421Z,15.15
2023-03-21T11:41:26.701Z,15.09
2023-03-21T11:43:27.081Z,15.18
2023-03-21T11:45:27.667Z,15.15
2023-03-21T11:47:27.939Z,15.18
2023-03-21T11:49:28.253Z,15.31
2023-03-21T11:51:28.596Z,15.49
2023-03-21T11:53:28.881Z,15.68
2023-03-21T11:55:29.157Z,15.92
2023-03-21T11:57:29.528Z,16.12
2023-03-21T11:59:29.848Z,16.21
2023-03-21T12:01:30.119Z,16.04
2023-03-21T12:03:35.301Z,16.10
2023-03-21T12:05:35.612Z,16.21
2023-03-21T12:07:35.915Z,16.28
2023-03-21T12:09:36.206Z,16.32
2023-03-21T12:11:36.510Z,16.50
2023-03-21T12:13:36.848Z,16.58
2023-03-21T12:15:37.452Z,16.84
2023-03-21T12:17:37.866Z,17.01
2023-03-21T12:19:38.157Z,17.14
2023-03-21T12:21:38.497Z,17.24
2023-03-21T12:23:38.862Z,17.33
2023-03-21T12:25:39.697Z,17.56
2023-03-21T12:27:41.026Z,17.70
2023-03-21T12:29:41.309Z,17.83
2023-03-21T12:31:41.681Z,17.57
2023-03-21T12:33:41.959Z,17.65
2023-03-21T12:35:42.457Z,17.65
2023-03-21T12:37:42.788Z,17.71
2023-03-21T12:39:43.213Z,17.60
2023-03-21T12:41:43.562Z,17.60
2023-03-21T12:43:43.886Z,17.65
2023-03-21T12:45:47.261Z,17.79
2023-03-21T12:47:48.004Z,18.00
2023-03-21T12:49:48.303Z,17.95
2023-03-21T12:51:48.632Z,18.04
2023-03-21T12:53:48.883Z,18.10
2023-03-21T12:55:49.355Z,17.87
2023-03-21T12:57:57.050Z,17.54
2023-03-21T12:59:54.768Z,17.54
2023-03-21T13:01:55.083Z,17.48
2023-03-21T13:03:55.393Z,17.46
2023-03-21T13:05:55.656Z,17.51
2023-03-21T13:07:55.997Z,17.65
2023-03-21T13:09:56.314Z,17.68
2023-03-21T13:11:56.671Z,17.45
2023-03-21T13:13:57.145Z,17.31
2023-03-21T13:15:57.416Z,17.26
2023-03-21T13:17:57.702Z,17.27
2023-03-21T13:19:58.018Z,17.15
2023-03-21T13:21:58.299Z,17.09
2023-03-21T13:23:58.595Z,17.08
2023-03-21T13:25:58.885Z,17.05
2023-03-21T13:27:59.322Z,17.11
2023-03-21T13:29:59.612Z,17.09
2023-03-21T13:31:59.967Z,16.99
2023-03-21T13:34:00.325Z,16.91
2023-03-21T13:36:00.690Z,16.96
2023-03-21T13:38:00.973Z,16.97
2023-03-21T13:40:01.284Z,16.91
2023-03-21T13:42:01.594Z,16.87
2023-03-21T13:44:02.035Z,16.74
2023-03-21T13:46:02.344Z,16.69
2023-03-21T13:48:02.742Z,16.51
2023-03-21T13:50:03.024Z,16.41
2023-03-21T13:52:03.318Z,16.10
2023-03-21T13:54:03.610Z,16.04
2023-03-21T13:56:03.948Z,16.04
2023-03-21T13:58:04.208Z,15.94
2023-03-21T14:00:04.645Z,15.80
2023-03-21T14:02:05.135Z,15.65
2023-03-21T14:04:05.428Z,15.67
2023-03-21T14:06:05.905Z,15.67
2023-03-21T14:08:13.914Z,15.64
2023-03-21T14:10:11.451Z,15.59
2023-03-21T14:12:11.812Z,15.52
2023-03-21T14:14:12.094Z,15.51
2023-03-21T14:16:12.654Z,15.44
2023-03-21T14:18:27.294Z,15.39
2023-03-21T14:20:18.114Z,15.28
2023-03-21T14:22:18.398Z,15.18
2023-03-21T14:24:18.679Z,15.10
2023-03-21T14:26:19.021Z,15.07
2023-03-21T14:28:19.639Z,15.04
2023-03-21T14:30:19.888Z,14.99
2023-03-21T14:32:20.323Z,14.91
2023-03-21T14:34:20.607Z,14.89
2023-03-21T14:36:20.982Z,14.85
2023-03-21T14:38:21.270Z,14.86
2023-03-21T14:40:21.594Z,14.86
2023-03-21T14:42:21.946Z,14.86
2023-03-21T14:44:22.269Z,14.84
2023-03-21T14:46:22.787Z,14.77
2023-03-21T14:48:23.254Z,14.65
2023-03-21T14:50:23.516Z,14.53
2023-03-21T14:52:23.824Z,14.44
2023-03-21T14:54:24.163Z,14.41
2023-03-21T14:56:24.452Z,14.32
2023-03-21T14:58:24.792Z,14.18
2023-03-21T15:00:25.104Z,14.04
2023-03-21T15:02:25.529Z,13.87
2023-03-21T15:04:25.909Z,13.79
2023-03-21T15:06:26.227Z,13.75
2023-03-21T15:08:26.526Z,13.65
2023-03-21T15:10:26.812Z,13.57
2023-03-21T15:12:27.130Z,13.50
2023-03-21T15:14:27.392Z,13.38
2023-03-21T15:16:27.783Z,13.25
2023-03-21T15:18:28.131Z,13.13
2023-03-21T15:20:28.534Z,13.12
2023-03-21T15:22:30.302Z,13.03
2023-03-21T15:24:30.570Z,12.98
2023-03-21T15:26:30.874Z,12.93
2023-03-21T15:28:31.270Z,12.93
2023-03-21T15:30:33.272Z,12.91
2023-03-21T15:32:33.547Z,12.90
2023-03-21T15:34:33.923Z,12.87
2023-03-21T15:36:34.318Z,12.93
2023-03-21T15:38:34.575Z,12.90
2023-03-21T15:40:34.876Z,12.90
2023-03-21T15:42:35.184Z,12.93
2023-03-21T15:44:35.658Z,12.94
2023-03-21T15:46:36.020Z,12.95
2023-03-21T15:48:36.276Z,12.95
2023-03-21T15:50:37.037Z,12.97
2023-03-21T15:52:37.593Z,12.93
2023-03-21T15:54:37.873Z,12.97
2023-03-21T15:56:38.208Z,12.97
2023-03-21T15:58:38.587Z,12.94
2023-03-21T16:00:39.447Z,12.97
2023-03-21T16:02:40.063Z,12.94
2023-03-21T16:04:40.464Z,12.95
2023-03-21T16:06:40.853Z,12.98
2023-03-21T16:08:41.249Z,13.01
2023-03-21T16:10:42.341Z,13.00
2023-03-21T16:12:42.609Z,13.00
2023-03-21T16:14:42.994Z,13.00
2023-03-21T16:16:43.439Z,12.93
2023-03-21T16:18:43.686Z,12.94
2023-03-21T16:20:44.080Z,12.91
2023-03-21T16:22:44.425Z,12.91
2023-03-21T16:24:44.820Z,12.87
2023-03-21T16:26:45.118Z,12.86
2023-03-21T16:28:45.383Z,12.90
2023-03-21T16:30:45.774Z,12.93
2023-03-21T16:32:46.047Z,12.93
2023-03-21T16:34:46.367Z,12.95
2023-03-21T16:36:46.656Z,12.97
2023-03-21T16:38:46.951Z,12.98
2023-03-21T16:40:47.293Z,12.97
2023-03-21T16:42:47.582Z,12.95
2023-03-21T16:44:47.908Z,12.91
2023-03-21T16:46:48.213Z,12.94
2023-03-21T16:48:48.486Z,12.97
2023-03-21T16:50:48.832Z,12.91
2023-03-21T16:52:49.145Z,12.90
2023-03-21T16:54:49.637Z,12.86
2023-03-21T16:56:49.896Z,12.86
2023-03-21T16:58:50.181Z,12.82
2023-03-21T17:00:50.642Z,12.83
2023-03-21T17:02:50.885Z,12.76
2023-03-21T17:04:51.172Z,12.73
2023-03-21T17:06:51.509Z,12.70
2023-03-21T17:08:51.799Z,12.62
2023-03-21T17:10:52.096Z,12.65
2023-03-21T17:12:52.416Z,12.61
2023-03-21T17:14:52.667Z,12.64
2023-03-21T17:16:53.106Z,12.62
2023-03-21T17:18:56.167Z,12.60
2023-03-21T17:20:56.419Z,12.57
2023-03-21T17:22:56.729Z,12.53
2023-03-21T17:24:57.049Z,12.50
2023-03-21T17:26:57.328Z,12.49
2023-03-21T17:28:57.630Z,12.50
2023-03-21T17:30:57.908Z,12.43
2023-03-21T17:32:58.364Z,12.43
2023-03-21T17:34:58.647Z,12.36
2023-03-21T17:36:58.957Z,12.32
2023-03-21T17:38:59.256Z,12.27
2023-03-21T17:40:59.505Z,12.20
2023-03-21T17:42:59.860Z,12.17
2023-03-21T17:45:00.437Z,12.13
2023-03-21T17:47:00.714Z,12.09
2023-03-21T17:49:01.001Z,12.04
2023-03-21T17:51:01.345Z,12.03
2023-03-21T17:53:01.730Z,11.94
2023-03-21T17:55:02.104Z,11.95
2023-03-21T17:57:02.415Z,11.88
2023-03-21T17:59:02.719Z,11.86
2023-03-21T18:01:03.008Z,11.83
2023-03-21T18:03:03.310Z,11.83
2023-03-21T18:05:04.219Z,11.81
2023-03-21T18:07:12.248Z,11.84
2023-03-21T18:09:14.233Z,11.86
2023-03-21T18:11:14.577Z,11.86
2023-03-21T18:13:14.881Z,11.84
2023-03-21T18:15:17.209Z,11.86
2023-03-21T18:17:19.515Z,11.81
2023-03-21T18:19:19.798Z,11.81
2023-03-21T18:21:20.507Z,11.80
2023-03-21T18:23:25.645Z,11.77
2023-03-21T18:25:26.011Z,11.73
2023-03-21T18:27:26.603Z,11.68
2023-03-21T18:31:32.111Z,11.65
2023-03-21T18:33:32.417Z,11.62
2023-03-21T18:35:32.703Z,11.60
2023-03-21T18:37:35.225Z,11.57
2023-03-21T18:39:35.764Z,11.57
2023-03-21T18:41:36.097Z,11.55
2023-03-21T18:45:41.841Z,11.45
2023-03-21T18:47:42.165Z,11.44
2023-03-21T18:50:13.313Z,11.45
2023-03-21T18:51:47.712Z,11.44
2023-03-21T18:53:48.027Z,11.36
2023-03-21T18:55:50.717Z,11.30
2023-03-21T18:57:52.611Z,11.27
2023-03-21T18:59:52.862Z,11.26
2023-03-21T19:01:53.191Z,11.26
2023-03-21T19:04:16.544Z,11.23
2023-03-21T19:05:58.681Z,11.18
2023-03-21T19:07:58.974Z,11.15
2023-03-21T19:10:16.371Z,11.10
2023-03-21T19:12:04.543Z,11.08
2023-03-21T19:14:04.809Z,11.05
2023-03-21T19:16:05.234Z,11.04
2023-03-21T19:20:10.777Z,11.07
2023-03-21T19:22:11.128Z,11.12
2023-03-21T19:24:28.774Z,11.15
2023-03-21T19:26:16.612Z,11.19
2023-03-21T19:28:16.981Z,11.17
2023-03-21T19:30:17.248Z,11.14
2023-03-21T19:32:17.591Z,11.10
2023-03-21T19:34:17.881Z,11.08
2023-03-21T19:36:22.522Z,11.08
2023-03-21T19:38:23.386Z,11.04
2023-03-21T19:40:23.697Z,11.05
2023-03-21T19:42:27.741Z,11.07
2023-03-21T19:44:29.192Z,11.05
2023-03-21T19:46:29.477Z,11.00
2023-03-21T19:48:29.876Z,10.99
2023-03-21T19:52:35.391Z,10.96
2023-03-21T19:54:35.690Z,10.92
2023-03-21T19:56:37.640Z,10.89
2023-03-21T19:58:38.083Z,10.90
2023-03-21T20:00:38.712Z,10.87
2023-03-21T20:02:39.653Z,10.89
2023-03-21T20:04:40.103Z,10.87
2023-03-21T20:06:40.394Z,10.86
2023-03-21T20:09:13.721Z,10.84
2023-03-21T20:10:45.958Z,10.78
2023-03-21T20:12:46.239Z,10.75
2023-03-21T20:14:46.538Z,10.76
2023-03-21T20:16:46.931Z,10.71
2023-03-21T20:18:47.207Z,10.69
2023-03-21T20:20:47.491Z,10.69
2023-03-21T20:23:07.464Z,10.67
2023-03-21T20:24:52.985Z,10.67
2023-03-21T20:26:53.287Z,10.63
2023-03-21T20:29:06.285Z,10.64
2023-03-21T20:30:58.864Z,10.63
2023-03-21T20:32:59.121Z,10.67
2023-03-21T20:35:10.244Z,10.67
2023-03-21T20:37:06.321Z,10.67
2023-03-21T20:39:06.796Z,10.68
2023-03-21T20:41:07.078Z,10.68
2023-03-21T20:43:41.871Z,10.67
2023-03-21T20:45:12.626Z,10.67
2023-03-21T20:47:13.028Z,10.68
2023-03-21T20:49:13.505Z,10.68
2023-03-21T20:53:19.077Z,10.71
2023-03-21T20:55:19.412Z,10.75
2023-03-21T20:57:20.176Z,10.78
2023-03-21T20:59:26.606Z,10.79
2023-03-21T21:01:25.949Z,10.84
2023-03-21T21:03:26.675Z,10.86
2023-03-21T21:05:31.442Z,10.84
2023-03-21T21:07:32.176Z,10.84
2023-03-21T21:09:32.523Z,10.81
2023-03-21T21:12:05.659Z,10.78
2023-03-21T21:13:38.072Z,10.76
2023-03-21T21:15:38.435Z,10.71
2023-03-21T21:19:43.868Z,10.64
2023-03-21T21:21:44.204Z,10.67
2023-03-21T21:23:45.173Z,10.64
2023-03-21T21:25:45.940Z,10.60
2023-03-21T21:27:46.313Z,10.48
2023-03-21T21:29:46.658Z,10.38
2023-03-21T21:31:51.960Z,10.33
2023-03-21T21:33:52.309Z,10.26
2023-03-21T21:35:52.748Z,10.17
2023-03-21T21:37:53.015Z,10.12
2023-03-21T21:39:53.359Z,10.07
2023-03-21T21:41:53.631Z,9.98
2023-03-21T21:43:53.915Z,9.91
2023-03-21T21:45:54.245Z,9.89
2023-03-21T21:47:54.583Z,9.91
2023-03-21T21:49:54.867Z,9.79
2023-03-21T21:51:55.143Z,9.62
2023-03-21T21:53:55.490Z,9.44
2023-03-21T21:56:00.668Z,9.26
2023-03-21T21:58:00.941Z,9.14
2023-03-21T22:00:01.272Z,9.04
2023-03-21T22:02:01.600Z,8.92
2023-03-21T22:04:01.958Z,8.91
2023-03-21T22:06:02.246Z,8.82
2023-03-21T22:08:02.556Z,8.82
2023-03-21T22:10:03.194Z,8.85
2023-03-21T22:12:03.496Z,8.82
2023-03-21T22:14:03.829Z,8.76
2023-03-21T22:16:04.194Z,8.74
2023-03-21T22:18:04.476Z,8.69
2023-03-21T22:20:06.588Z,8.61
2023-03-21T22:22:07.140Z,8.55
2023-03-21T22:24:07.401Z,8.55
2023-03-21T22:26:07.742Z,8.55
2023-03-21T22:28:08.059Z,8.55
2023-03-21T22:30:08.392Z,8.56
2023-03-21T22:32:08.712Z,8.60
2023-03-21T22:34:09.009Z,8.56
2023-03-21T22:36:09.338Z,8.64
2023-03-21T22:38:09.603Z,8.69
2023-03-21T22:40:09.908Z,8.70
2023-03-21T22:42:10.259Z,8.73
2023-03-21T22:44:10.547Z,8.74
2023-03-21T22:46:10.890Z,8.74
2023-03-21T22:48:11.238Z,8.81
2023-03-21T22:50:11.522Z,8.85
2023-03-21T22:52:11.888Z,8.84
2023-03-21T22:54:12.216Z,8.87
2023-03-21T22:56:12.475Z,8.91
2023-03-21T22:58:12.790Z,8.97
2023-03-21T23:00:13.757Z,9.06
2023-03-21T23:02:14.465Z,9.10
2023-03-21T23:04:14.792Z,9.16
2023-03-21T23:06:15.074Z,9.19
2023-03-21T23:08:15.418Z,9.26
2023-03-21T23:10:15.689Z,9.36
2023-03-21T23:12:15.962Z,9.40
2023-03-21T23:14:16.283Z,9.46
2023-03-21T23:16:16.631Z,9.51
2023-03-21T23:18:16.908Z,9.59
2023-03-21T23:20:17.204Z,9.69
2023-03-21T23:22:17.566Z,9.74
2023-03-21T23:24:17.846Z,9.79
2023-03-21T23:26:18.127Z,9.82
2023-03-21T23:28:18.435Z,9.87
2023-03-21T23:30:18.765Z,9.94
2023-03-21T23:32:19.065Z,9.97
2023-03-21T23:34:19.342Z,10.01
2023-03-21T23:36:19.800Z,10.04
2023-03-21T23:38:20.189Z,10.05
2023-03-21T23:40:20.490Z,10.07
2023-03-21T23:42:20.775Z,10.09
2023-03-21T23:44:21.086Z,10.10
2023-03-21T23:46:21.481Z,10.10
2023-03-21T23:48:21.823Z,10.10
2023-03-21T23:50:22.145Z,10.12
2023-03-21T23:52:22.454Z,10.15
2023-03-21T23:54:22.762Z,10.22
2023-03-21T23:56:23.111Z,10.25
2023-03-21T23:58:23.400Z,10.26
